Time;durP1;ratioP1;P1;durP2;ratioP2;P2;SDS_P1;SDS_P2;PMS_P1;PMS_P2;Temp;Humidity;BMP_temperature;BMP_pressure;BME280_temperature;BME280_humidity;BME280_pressure;Samples;Min_cycle;Max_cycle;Signal;HPM_P1;HPM_P2
2023/01/08 00:01:43;;;;;;;11.03;6.00;;;8.30;78.60;;;;;;5024980;28;20448;-76
2023/01/08 00:04:09;;;;;;;13.53;7.30;;;8.30;78.60;;;;;;5041167;28;20526;-74
2023/01/08 00:06:34;;;;;;;10.13;6.67;;;8.20;78.70;;;;;;5045935;28;20262;-75
2023/01/08 00:09:00;;;;;;;12.23;7.00;;;8.30;78.70;;;;;;5042865;28;20475;-75
2023/01/08 00:11:26;;;;;;;11.10;6.70;;;8.20;78.60;;;;;;5046759;28;20181;-74
2023/01/08 00:13:51;;;;;;;11.87;7.23;;;8.30;78.60;;;;;;5038446;28;20799;-73
2023/01/08 00:16:18;;;;;;;10.43;7.03;;;8.30;78.60;;;;;;5032426;28;20292;-76
2023/01/08 00:18:45;;;;;;;11.73;7.30;;;8.30;78.60;;;;;;5028496;28;20231;-77
2023/01/08 00:21:11;;;;;;;10.90;6.80;;;8.30;78.60;;;;;;5019351;28;20439;-75
2023/01/08 00:23:37;;;;;;;12.90;7.10;;;8.30;78.70;;;;;;5027563;28;20966;-76
2023/01/08 00:26:06;;;;;;;13.53;6.83;;;8.30;78.70;;;;;;5022970;28;20921;-76
2023/01/08 00:28:32;;;;;;;14.93;7.00;;;8.30;78.70;;;;;;5020512;28;20475;-76
2023/01/08 00:30:57;;;;;;;11.90;6.70;;;8.20;78.90;;;;;;5029678;28;20424;-75
2023/01/08 00:33:23;;;;;;;16.97;7.93;;;8.20;79.00;;;;;;5028041;28;20458;-76
2023/01/08 00:35:49;;;;;;;12.90;6.33;;;8.10;79.20;;;;;;5028002;28;20209;-77
2023/01/08 00:38:15;;;;;;;11.20;6.60;;;8.10;79.30;;;;;;5028671;28;20478;-76
2023/01/08 00:40:40;;;;;;;15.07;7.10;;;8.20;79.00;;;;;;5028139;28;20248;-75
2023/01/08 00:43:07;;;;;;;9.63;6.23;;;8.20;79.00;;;;;;5031086;28;20790;-76
2023/01/08 00:45:32;;;;;;;10.47;6.33;;;8.20;78.90;;;;;;5026680;28;20240;-75
2023/01/08 00:47:58;;;;;;;10.33;6.30;;;8.30;78.90;;;;;;5027006;28;20503;-76
2023/01/08 00:50:24;;;;;;;12.37;7.33;;;8.30;78.60;;;;;;5025099;28;20185;-77
2023/01/08 00:52:50;;;;;;;11.90;6.57;;;8.30;78.40;;;;;;5023121;28;20428;-76
2023/01/08 00:55:16;;;;;;;11.53;6.67;;;8.30;78.10;;;;;;5024579;28;20524;-75
2023/01/08 00:57:42;;;;;;;10.10;6.20;;;8.30;78.40;;;;;;5028335;28;20200;-75
2023/01/08 01:00:10;;;;;;;9.97;6.40;;;8.30;78.10;;;;;;5021702;28;20443;-76
2023/01/08 01:02:36;;;;;;;13.20;7.50;;;8.30;78.30;;;;;;5025529;28;20528;-75
2023/01/08 01:05:02;;;;;;;11.47;6.20;;;8.30;78.30;;;;;;5025491;28;20449;-74
2023/01/08 01:07:28;;;;;;;14.00;7.37;;;8.20;78.40;;;;;;5028226;28;20985;-76
2023/01/08 01:09:54;;;;;;;11.00;6.90;;;8.20;78.40;;;;;;5028078;28;20463;-75
2023/01/08 01:12:19;;;;;;;9.03;6.20;;;8.20;78.30;;;;;;5021653;28;20181;-76
2023/01/08 01:14:45;;;;;;;12.40;7.10;;;8.10;78.70;;;;;;5020784;28;20184;-75
2023/01/08 01:17:12;;;;;;;15.03;7.23;;;8.20;78.70;;;;;;5026022;28;20208;-76
2023/01/08 01:19:38;;;;;;;10.30;6.53;;;8.10;78.90;;;;;;5021568;28;20180;-76
2023/01/08 01:22:04;;;;;;;12.67;6.50;;;8.10;79.00;;;;;;5023566;28;20515;-76
2023/01/08 01:24:29;;;;;;;11.17;6.30;;;8.00;79.20;;;;;;5029129;28;20998;-75
2023/01/08 01:26:56;;;;;;;12.10;7.13;;;8.00;79.50;;;;;;5031113;28;20546;-74
2023/01/08 01:29:22;;;;;;;10.53;6.53;;;8.00;79.60;;;;;;5026154;28;20181;-75
2023/01/08 01:31:48;;;;;;;8.70;5.80;;;7.90;79.50;;;;;;5032771;28;20492;-75
2023/01/08 01:34:13;;;;;;;11.80;6.77;;;7.90;79.70;;;;;;5027840;28;21349;-76
2023/01/08 01:36:39;;;;;;;11.70;6.20;;;8.00;79.30;;;;;;5032694;28;20293;-76
2023/01/08 01:39:05;;;;;;;10.90;6.30;;;8.10;78.90;;;;;;5032833;28;20204;-75
2023/01/08 01:41:36;;;;;;;7.57;5.13;;;8.20;78.40;;;;;;5023835;28;20190;-77
2023/01/08 01:44:40;;;;;;;11.90;6.87;;;8.30;78.10;;;;;;5036404;28;20435;-74
2023/01/08 01:47:22;;;;;;;11.50;6.20;;;8.30;78.10;;;;;;5031325;28;20482;-74
2023/01/08 01:50:02;;;;;;;10.83;6.20;;;8.30;78.10;;;;;;5028490;28;20451;-75
2023/01/08 01:52:31;;;;;;;12.37;6.73;;;8.30;78.30;;;;;;5038894;28;20431;-76
2023/01/08 01:54:59;;;;;;;9.37;6.00;;;8.30;78.10;;;;;;5031842;28;20855;-74
2023/01/08 01:57:25;;;;;;;9.27;5.73;;;8.30;78.10;;;;;;5031731;28;20470;-74
2023/01/08 01:59:53;;;;;;;9.87;6.00;;;8.30;78.00;;;;;;5032032;28;20466;-76
2023/01/08 02:02:19;;;;;;;9.47;5.70;;;8.30;77.80;;;;;;5033139;28;20185;-75
2023/01/08 02:04:44;;;;;;;9.00;5.60;;;8.40;77.80;;;;;;5031120;28;20434;-76
2023/01/08 02:07:18;;;;;;;7.63;5.80;;;8.50;77.60;;;;;;5027896;28;20699;-75
2023/01/08 02:09:49;;;;;;;9.30;5.77;;;8.60;77.00;;;;;;5030125;28;20185;-74
2023/01/08 02:12:24;;;;;;;10.43;5.37;;;8.70;76.20;;;;;;5025938;28;20427;-76
2023/01/08 02:15:10;;;;;;;10.33;5.40;;;8.80;76.10;;;;;;5027724;28;20423;-73
2023/01/08 02:17:54;;;;;;;11.00;6.30;;;8.90;75.50;;;;;;5025775;28;20775;-75
2023/01/08 02:20:45;;;;;;;9.50;5.30;;;9.00;75.70;;;;;;5028344;28;20438;-75
2023/01/08 02:23:39;;;;;;;7.80;5.03;;;9.00;75.50;;;;;;5037988;28;20432;-75
2023/01/08 02:26:07;;;;;;;7.50;5.20;;;9.00;75.70;;;;;;5029865;28;20460;-76
2023/01/08 02:28:45;;;;;;;8.20;5.37;;;9.00;75.40;;;;;;5027200;28;20535;-75
2023/01/08 02:31:13;;;;;;;12.70;4.83;;;9.10;75.10;;;;;;5030157;28;20449;-76
2023/01/08 02:33:39;;;;;;;6.47;4.70;;;9.10;75.10;;;;;;5025782;28;20532;-75
2023/01/08 02:36:20;;;;;;;13.13;5.30;;;9.10;74.90;;;;;;5028788;28;20462;-75
2023/01/08 02:39:07;;;;;;;6.53;4.80;;;9.10;74.80;;;;;;5027182;28;20428;-76
2023/01/08 02:42:03;;;;;;;13.60;5.50;;;9.10;75.10;;;;;;5029758;28;20511;-74
2023/01/08 02:45:05;;;;;;;11.80;6.00;;;9.20;75.10;;;;;;5030348;28;20469;-76
2023/01/08 02:47:47;;;;;;;9.00;5.40;;;9.00;75.40;;;;;;5013985;28;20479;-75
2023/01/08 02:50:27;;;;;;;8.03;5.00;;;8.90;75.80;;;;;;5026470;28;20423;-75
2023/01/08 02:52:58;;;;;;;7.43;4.77;;;8.90;75.90;;;;;;5026125;28;20452;-75
2023/01/08 02:55:27;;;;;;;9.17;5.80;;;8.90;76.20;;;;;;5026957;28;20864;-75
2023/01/08 02:57:53;;;;;;;7.33;4.97;;;8.90;76.10;;;;;;5030430;28;21162;-77
2023/01/08 03:00:20;;;;;;;7.23;5.03;;;8.80;76.20;;;;;;5032566;28;20455;-77
2023/01/08 03:02:48;;;;;;;10.20;5.73;;;8.70;76.40;;;;;;5033690;28;20997;-76
2023/01/08 03:05:22;;;;;;;9.77;5.53;;;8.70;76.40;;;;;;5033774;28;20603;-75
2023/01/08 03:07:49;;;;;;;8.43;5.50;;;8.70;76.40;;;;;;5030804;28;20464;-75
2023/01/08 03:10:14;;;;;;;9.57;5.90;;;8.60;76.70;;;;;;5030379;28;20428;-77
2023/01/08 03:12:56;;;;;;;10.33;5.10;;;8.60;76.70;;;;;;5026644;28;21047;-74
2023/01/08 03:15:33;;;;;;;7.50;4.87;;;8.70;76.50;;;;;;5028691;28;20942;-76
2023/01/08 03:18:06;;;;;;;8.67;5.10;;;8.70;76.50;;;;;;5029950;28;20954;-76
2023/01/08 03:20:34;;;;;;;6.13;4.70;;;8.80;76.40;;;;;;5028091;28;20454;-76
2023/01/08 03:23:01;;;;;;;10.57;5.70;;;8.80;76.20;;;;;;5031982;28;20427;-76
2023/01/08 03:25:29;;;;;;;10.73;5.90;;;8.80;76.20;;;;;;5026450;28;20452;-74
2023/01/08 03:27:59;;;;;;;8.93;5.67;;;8.80;76.20;;;;;;5027951;28;20463;-75
2023/01/08 03:30:27;;;;;;;9.37;5.50;;;8.80;76.20;;;;;;5025582;28;21293;-74
2023/01/08 03:32:54;;;;;;;7.57;5.20;;;8.60;76.70;;;;;;5028859;28;20435;-77
2023/01/08 03:35:22;;;;;;;8.90;6.30;;;8.60;76.70;;;;;;5021844;28;20474;-76
2023/01/08 03:38:03;;;;;;;9.90;5.67;;;8.60;77.00;;;;;;5029683;28;20864;-77
2023/01/08 03:40:39;;;;;;;10.43;5.17;;;8.50;77.10;;;;;;5027396;28;20412;-76
2023/01/08 03:43:04;;;;;;;8.77;5.23;;;8.50;77.30;;;;;;5028705;28;20450;-75
2023/01/08 03:45:31;;;;;;;10.80;5.40;;;8.50;77.30;;;;;;5047689;28;20441;-73
2023/01/08 03:47:58;;;;;;;9.90;5.90;;;8.50;77.40;;;;;;5044930;28;20615;-74
2023/01/08 03:50:27;;;;;;;9.07;5.33;;;8.40;77.30;;;;;;5049362;28;20419;-76
2023/01/08 03:52:52;;;;;;;7.87;5.23;;;8.50;77.60;;;;;;5049747;28;20450;-75
2023/01/08 03:55:18;;;;;;;11.33;6.23;;;8.40;77.60;;;;;;5035613;28;20456;-75
2023/01/08 03:57:43;;;;;;;9.23;5.47;;;8.40;77.60;;;;;;5027593;28;20205;-75
2023/01/08 04:00:09;;;;;;;10.27;5.73;;;8.30;78.00;;;;;;5026455;28;20266;-77
2023/01/08 04:02:35;;;;;;;14.47;5.83;;;8.30;78.10;;;;;;5031030;28;20192;-75
2023/01/08 04:05:01;;;;;;;11.70;6.20;;;8.30;78.10;;;;;;5030581;28;20718;-74
2023/01/08 04:07:26;;;;;;;9.27;5.20;;;8.30;78.10;;;;;;5026695;28;20204;-76
2023/01/08 04:09:52;;;;;;;9.20;4.90;;;8.30;78.30;;;;;;5028590;28;20951;-75
2023/01/08 04:12:17;;;;;;;10.27;4.87;;;8.40;78.10;;;;;;5024907;28;20193;-75
2023/01/08 04:14:43;;;;;;;10.13;5.43;;;8.20;78.40;;;;;;5029453;28;20192;-76
2023/01/08 04:17:12;;;;;;;7.30;4.70;;;8.20;78.40;;;;;;5030207;28;20228;-76
2023/01/08 04:19:38;;;;;;;9.00;5.20;;;8.30;78.60;;;;;;5030918;28;20189;-76
2023/01/08 04:22:03;;;;;;;8.43;4.70;;;8.30;78.40;;;;;;5026866;28;20454;-77
2023/01/08 04:24:29;;;;;;;7.17;5.43;;;8.30;78.30;;;;;;5030233;28;20195;-76
2023/01/08 04:26:54;;;;;;;8.03;5.70;;;8.30;78.10;;;;;;5028097;28;20205;-74
2023/01/08 04:29:20;;;;;;;9.23;5.80;;;8.40;78.10;;;;;;5030665;28;20189;-74
2023/01/08 04:31:46;;;;;;;7.43;5.10;;;8.40;78.10;;;;;;5029703;28;20235;-75
2023/01/08 04:34:11;;;;;;;10.97;5.50;;;8.40;78.00;;;;;;5028758;28;20255;-77
2023/01/08 04:36:37;;;;;;;10.30;5.60;;;8.40;77.80;;;;;;5025264;28;20414;-77
2023/01/08 04:39:03;;;;;;;9.10;5.63;;;8.40;77.80;;;;;;5029433;28;20683;-76
2023/01/08 04:41:29;;;;;;;12.00;5.50;;;8.30;78.00;;;;;;5023281;28;20193;-76
2023/01/08 04:44:01;;;;;;;10.43;5.53;;;8.30;78.10;;;;;;5030328;28;20424;-75
2023/01/08 04:46:27;;;;;;;9.50;5.27;;;8.30;78.30;;;;;;5026921;28;20204;-76
2023/01/08 04:48:52;;;;;;;8.90;6.33;;;8.30;78.00;;;;;;5030127;28;20477;-77
2023/01/08 04:51:18;;;;;;;9.97;5.50;;;8.30;78.30;;;;;;5026548;28;20284;-76
2023/01/08 04:53:44;;;;;;;7.90;4.80;;;8.30;78.40;;;;;;5030532;28;20185;-76
2023/01/08 04:56:10;;;;;;;6.10;4.67;;;8.20;78.40;;;;;;5027253;28;20210;-76
2023/01/08 04:58:37;;;;;;;7.97;5.50;;;8.10;78.90;;;;;;5029584;28;20923;-77
2023/01/08 05:01:20;;;;;;;5.87;4.30;;;8.20;79.20;;;;;;5027163;28;20428;-75
2023/01/08 05:03:46;;;;;;;7.70;4.50;;;8.20;78.90;;;;;;5025133;28;20914;-75
2023/01/08 05:06:12;;;;;;;6.73;4.10;;;8.30;78.30;;;;;;5023413;28;20472;-75
2023/01/08 05:08:37;;;;;;;4.90;3.43;;;8.60;77.70;;;;;;5029518;28;20529;-77
2023/01/08 05:11:03;;;;;;;7.03;3.50;;;8.90;76.50;;;;;;5028248;28;20184;-76
2023/01/08 05:13:29;;;;;;;6.93;3.23;;;9.20;75.50;;;;;;5029883;28;20209;-74
2023/01/08 05:15:59;;;;;;;5.57;3.00;;;9.50;75.10;;;;;;5028639;28;20259;-73
2023/01/08 05:18:25;;;;;;;4.33;2.80;;;9.70;75.10;;;;;;5031832;28;20196;-73
2023/01/08 05:20:50;;;;;;;6.83;2.73;;;9.80;75.40;;;;;;5040764;28;20519;-76
2023/01/08 05:23:16;;;;;;;3.43;2.57;;;9.90;75.50;;;;;;5030221;28;20535;-77
2023/01/08 05:25:42;;;;;;;4.83;2.97;;;9.90;75.70;;;;;;5026682;28;20240;-76
2023/01/08 05:28:07;;;;;;;5.33;2.90;;;9.90;76.10;;;;;;5027182;28;20209;-73
2023/01/08 05:30:34;;;;;;;3.70;2.37;;;9.90;76.40;;;;;;5020637;28;20181;-76
2023/01/08 05:33:00;;;;;;;4.90;2.30;;;9.90;76.50;;;;;;5028051;28;20213;-76
2023/01/08 05:35:26;;;;;;;3.30;2.10;;;9.90;76.50;;;;;;5028753;28;20483;-74
2023/01/08 05:37:51;;;;;;;3.10;2.37;;;9.90;77.00;;;;;;5024913;28;20744;-76
2023/01/08 05:40:17;;;;;;;3.40;2.30;;;10.00;77.10;;;;;;5027695;28;20254;-74
2023/01/08 05:42:42;;;;;;;4.17;2.37;;;10.00;77.00;;;;;;5025120;28;20185;-74
2023/01/08 05:45:08;;;;;;;4.07;2.07;;;9.90;77.60;;;;;;5026342;28;20613;-75
2023/01/08 05:47:34;;;;;;;4.40;2.27;;;9.90;77.70;;;;;;5020473;28;20224;-75
2023/01/08 05:50:00;;;;;;;2.43;1.90;;;9.80;78.30;;;;;;5026309;28;20178;-76
2023/01/08 05:52:25;;;;;;;2.80;2.27;;;9.70;78.70;;;;;;5021559;28;20493;-74
2023/01/08 05:54:51;;;;;;;2.57;1.87;;;9.70;79.00;;;;;;5024332;28;20255;-74
2023/01/08 05:57:16;;;;;;;5.33;2.57;;;9.60;79.30;;;;;;5025908;28;20617;-75
2023/01/08 05:59:42;;;;;;;2.30;2.10;;;9.60;79.90;;;;;;5028502;28;20189;-74
2023/01/08 06:02:08;;;;;;;2.83;1.90;;;9.50;80.00;;;;;;5029792;28;20676;-74
2023/01/08 06:04:33;;;;;;;2.93;2.10;;;9.50;80.90;;;;;;5024538;28;20193;-74
2023/01/08 06:06:59;;;;;;;5.00;2.70;;;9.40;81.50;;;;;;5025463;28;20565;-76
2023/01/08 06:09:24;;;;;;;3.03;2.13;;;9.40;81.80;;;;;;5026403;28;20236;-76
2023/01/08 06:11:51;;;;;;;4.97;2.27;;;9.30;82.40;;;;;;5032181;28;20268;-77
2023/01/08 06:14:17;;;;;;;2.57;1.87;;;9.30;83.10;;;;;;5021375;28;20185;-74
2023/01/08 06:16:43;;;;;;;2.63;2.00;;;9.20;83.30;;;;;;5030543;28;20505;-76
2023/01/08 06:19:10;;;;;;;2.43;1.77;;;9.20;83.10;;;;;;5029390;28;20428;-75
2023/01/08 06:21:36;;;;;;;2.67;2.10;;;9.20;83.00;;;;;;5031312;28;20435;-76
2023/01/08 06:24:01;;;;;;;3.90;1.93;;;9.20;83.30;;;;;;5028895;28;20463;-76
2023/01/08 06:26:27;;;;;;;3.70;1.83;;;9.20;83.40;;;;;;5030762;28;20283;-76
2023/01/08 06:28:52;;;;;;;1.97;1.50;;;9.20;83.60;;;;;;5024317;28;20209;-75
2023/01/08 06:31:18;;;;;;;2.53;2.20;;;9.20;83.80;;;;;;5032387;28;20189;-76
2023/01/08 06:33:43;;;;;;;3.00;1.93;;;9.10;84.10;;;;;;5029432;28;20800;-75
2023/01/08 06:36:09;;;;;;;3.33;1.73;;;9.10;84.30;;;;;;5034129;28;20563;-76
2023/01/08 06:38:35;;;;;;;2.47;2.00;;;9.10;84.30;;;;;;5026905;28;20185;-76
2023/01/08 06:41:09;;;;;;;2.60;1.90;;;9.10;84.60;;;;;;5029749;28;20502;-75
2023/01/08 06:43:36;;;;;;;3.33;2.17;;;9.10;84.30;;;;;;5029667;28;20416;-75
2023/01/08 06:46:03;;;;;;;2.80;1.70;;;9.10;84.30;;;;;;5028377;28;20464;-76
2023/01/08 06:48:28;;;;;;;2.50;1.60;;;9.10;84.10;;;;;;5022439;28;20475;-76
2023/01/08 06:50:55;;;;;;;2.40;1.50;;;9.20;83.80;;;;;;5027554;28;20416;-76
2023/01/08 06:53:20;;;;;;;2.57;1.80;;;9.30;83.70;;;;;;5028669;28;20178;-75
2023/01/08 06:55:46;;;;;;;2.30;1.70;;;9.30;83.30;;;;;;5031618;28;20472;-76
2023/01/08 06:58:11;;;;;;;2.53;1.80;;;9.20;83.70;;;;;;5026279;28;20339;-75
2023/01/08 07:00:38;;;;;;;2.67;1.80;;;9.20;84.00;;;;;;5024796;28;20648;-76
2023/01/08 07:03:04;;;;;;;2.77;1.97;;;9.20;84.10;;;;;;5028813;28;20507;-76
2023/01/08 07:05:30;;;;;;;2.93;1.60;;;9.20;84.10;;;;;;5031564;28;20223;-74
2023/01/08 07:07:55;;;;;;;2.63;1.67;;;9.20;84.40;;;;;;5030366;28;20602;-73
2023/01/08 07:10:21;;;;;;;2.47;1.70;;;9.20;84.30;;;;;;5034022;28;20189;-75
2023/01/08 07:12:47;;;;;;;2.63;1.50;;;9.20;84.30;;;;;;5035075;28;20482;-75
2023/01/08 07:15:13;;;;;;;3.00;1.67;;;9.20;84.60;;;;;;5032041;28;20288;-75
2023/01/08 07:17:39;;;;;;;2.37;1.70;;;9.20;84.70;;;;;;5035575;28;20777;-75
2023/01/08 07:20:06;;;;;;;2.17;1.50;;;9.20;84.90;;;;;;5032480;28;20489;-75
2023/01/08 07:22:31;;;;;;;2.10;1.50;;;9.20;85.20;;;;;;5028761;28;20195;-75
2023/01/08 07:24:57;;;;;;;2.23;1.57;;;9.10;85.50;;;;;;5027028;28;20420;-76
2023/01/08 07:27:22;;;;;;;3.20;1.70;;;9.10;85.30;;;;;;5031022;28;20236;-74
2023/01/08 07:29:48;;;;;;;1.90;1.50;;;9.10;85.60;;;;;;5032183;28;20188;-74
2023/01/08 07:32:13;;;;;;;2.27;1.60;;;9.10;85.60;;;;;;5027431;28;20208;-76
2023/01/08 07:34:39;;;;;;;2.80;1.70;;;9.00;86.20;;;;;;5018745;28;20198;-77
2023/01/08 07:37:04;;;;;;;3.17;1.53;;;9.00;86.30;;;;;;5029362;28;20239;-76
2023/01/08 07:39:31;;;;;;;2.23;1.70;;;9.00;86.60;;;;;;5028394;28;20632;-76
2023/01/08 07:41:56;;;;;;;2.47;1.53;;;8.90;86.90;;;;;;5030940;28;20189;-73
2023/01/08 07:44:22;;;;;;;2.53;1.50;;;8.90;87.60;;;;;;5030980;28;20424;-74
2023/01/08 07:46:47;;;;;;;1.53;1.20;;;8.80;88.10;;;;;;5025447;28;20210;-73
2023/01/08 07:49:13;;;;;;;1.67;1.40;;;8.80;88.60;;;;;;5036277;28;20216;-75
2023/01/08 07:51:38;;;;;;;2.47;1.53;;;8.80;88.70;;;;;;5038082;28;20181;-73
2023/01/08 07:54:04;;;;;;;2.93;1.60;;;8.70;88.40;;;;;;5037625;28;20259;-72
2023/01/08 07:56:30;;;;;;;2.60;1.60;;;8.80;88.70;;;;;;5030727;28;20235;-73
2023/01/08 07:58:55;;;;;;;2.60;1.63;;;8.80;88.60;;;;;;5027851;28;20279;-74
2023/01/08 08:01:22;;;;;;;3.07;1.67;;;8.70;88.60;;;;;;5029366;28;20193;-75
2023/01/08 08:03:48;;;;;;;3.43;1.50;;;8.70;88.70;;;;;;5028631;28;20182;-75
2023/01/08 08:06:13;;;;;;;1.67;1.43;;;8.80;88.60;;;;;;5023327;28;20626;-74
2023/01/08 08:08:39;;;;;;;2.13;1.43;;;8.70;88.60;;;;;;5026533;28;20232;-72
2023/01/08 08:11:05;;;;;;;3.70;1.70;;;8.80;88.70;;;;;;5025381;28;20185;-74
2023/01/08 08:13:30;;;;;;;2.07;1.63;;;8.80;88.60;;;;;;5027578;28;20181;-73
2023/01/08 08:16:00;;;;;;;2.53;1.60;;;8.70;88.60;;;;;;5020575;28;20214;-73
2023/01/08 08:18:26;;;;;;;1.97;1.73;;;8.70;88.60;;;;;;5030604;28;20201;-75
2023/01/08 08:20:52;;;;;;;3.80;1.80;;;8.70;88.90;;;;;;5027124;28;20426;-74
2023/01/08 08:23:17;;;;;;;2.40;1.57;;;8.60;89.00;;;;;;5030154;28;20224;-75
2023/01/08 08:25:43;;;;;;;2.40;1.50;;;8.60;89.20;;;;;;5029607;28;20757;-73
2023/01/08 08:28:10;;;;;;;2.20;1.60;;;8.60;89.50;;;;;;5025720;28;20213;-75
2023/01/08 08:30:36;;;;;;;3.13;1.90;;;8.60;89.60;;;;;;5022039;28;20265;-74
2023/01/08 08:33:04;;;;;;;4.63;2.00;;;8.50;89.90;;;;;;5029628;28;20435;-75
2023/01/08 08:35:30;;;;;;;4.70;2.03;;;8.50;89.70;;;;;;5025441;28;20469;-74
2023/01/08 08:37:56;;;;;;;2.73;1.80;;;8.50;89.70;;;;;;5026313;28;20431;-72
2023/01/08 08:40:22;;;;;;;2.00;1.50;;;8.50;89.90;;;;;;5023249;28;20468;-73
2023/01/08 08:42:48;;;;;;;3.57;1.83;;;8.50;89.90;;;;;;5022814;28;20196;-74
2023/01/08 08:45:14;;;;;;;2.43;1.47;;;8.50;90.00;;;;;;5026799;28;20866;-73
2023/01/08 08:47:39;;;;;;;2.80;1.83;;;8.50;89.90;;;;;;5028745;28;20322;-73
2023/01/08 08:50:06;;;;;;;2.33;1.60;;;8.50;89.90;;;;;;5029086;28;20645;-75
2023/01/08 08:52:32;;;;;;;4.70;2.03;;;8.50;90.10;;;;;;5029314;28;20185;-75
2023/01/08 08:54:58;;;;;;;2.23;1.50;;;8.60;90.00;;;;;;5023027;28;20467;-76
2023/01/08 08:57:25;;;;;;;3.53;2.30;;;8.60;89.90;;;;;;5024153;28;20950;-74
2023/01/08 08:59:50;;;;;;;2.20;1.70;;;8.60;89.60;;;;;;5029362;28;20424;-71
2023/01/08 09:02:16;;;;;;;2.40;1.50;;;8.70;89.20;;;;;;5029462;28;20427;-75
2023/01/08 09:04:41;;;;;;;2.57;1.80;;;8.70;88.90;;;;;;5029276;28;20189;-73
2023/01/08 09:07:07;;;;;;;1.50;1.43;;;8.70;88.70;;;;;;5025878;28;20212;-74
2023/01/08 09:09:32;;;;;;;2.47;1.70;;;8.80;88.60;;;;;;5021930;28;20592;-74
2023/01/08 09:11:58;;;;;;;2.80;1.50;;;8.80;88.60;;;;;;5024503;28;20223;-74
2023/01/08 09:14:24;;;;;;;3.17;1.97;;;8.80;88.10;;;;;;5026235;28;20189;-75
2023/01/08 09:16:49;;;;;;;3.30;1.57;;;8.90;87.60;;;;;;5027096;28;20304;-75
2023/01/08 09:19:15;;;;;;;1.93;1.40;;;8.90;87.60;;;;;;5028712;28;20188;-73
2023/01/08 09:21:40;;;;;;;2.50;1.90;;;9.00;87.10;;;;;;5028765;28;20185;-73
2023/01/08 09:24:07;;;;;;;3.63;2.20;;;9.00;86.90;;;;;;5027300;28;20200;-75
2023/01/08 09:26:32;;;;;;;4.93;1.67;;;9.00;87.00;;;;;;5026026;28;20216;-75
2023/01/08 09:28:58;;;;;;;2.80;1.70;;;9.00;87.00;;;;;;5024735;28;20832;-75
2023/01/08 09:31:25;;;;;;;2.13;1.80;;;9.10;86.90;;;;;;5027182;28;20192;-74
2023/01/08 09:33:50;;;;;;;2.20;1.70;;;9.10;86.50;;;;;;5024591;28;20618;-74
2023/01/08 09:36:16;;;;;;;2.17;1.43;;;9.20;85.70;;;;;;5025971;28;20483;-73
2023/01/08 09:38:43;;;;;;;2.47;1.50;;;9.20;85.70;;;;;;5025718;28;20185;-74
2023/01/08 09:41:19;;;;;;;3.83;2.20;;;9.30;85.30;;;;;;5023829;28;20427;-75
2023/01/08 09:43:49;;;;;;;3.10;1.97;;;9.30;85.20;;;;;;5030896;28;20510;-73
2023/01/08 09:46:17;;;;;;;2.17;1.73;;;9.30;85.30;;;;;;5024061;28;20467;-73
2023/01/08 09:48:43;;;;;;;4.00;1.87;;;9.40;84.70;;;;;;5028935;28;20475;-75
2023/01/08 09:51:13;;;;;;;2.93;1.53;;;9.40;84.40;;;;;;5031574;28;20561;-74
2023/01/08 09:53:39;;;;;;;3.67;1.90;;;9.40;84.40;;;;;;5033353;28;20440;-74
2023/01/08 09:56:11;;;;;;;2.03;1.63;;;9.40;84.40;;;;;;5027659;28;20982;-73
2023/01/08 09:58:51;;;;;;;2.83;1.70;;;9.50;84.60;;;;;;5030374;28;20439;-73
2023/01/08 10:01:23;;;;;;;3.90;1.73;;;9.50;84.60;;;;;;5024334;28;20424;-74
2023/01/08 10:04:22;;;;;;;3.17;1.97;;;9.50;84.10;;;;;;5047371;28;20547;-75
2023/01/08 10:07:10;;;;;;;4.00;1.80;;;9.60;84.10;;;;;;5034969;28;20546;-72
2023/01/08 10:09:36;;;;;;;6.20;1.67;;;9.60;83.60;;;;;;5027594;28;20796;-73
2023/01/08 10:12:04;;;;;;;5.73;1.87;;;9.60;83.70;;;;;;5029600;28;20483;-74
2023/01/08 10:14:34;;;;;;;2.70;1.83;;;9.60;83.80;;;;;;5026374;28;20169;-76
2023/01/08 10:17:06;;;;;;;2.63;1.60;;;9.70;83.40;;;;;;5022621;28;20451;-76
2023/01/08 10:19:32;;;;;;;3.73;1.87;;;9.70;83.30;;;;;;5025311;28;20926;-73
2023/01/08 10:21:58;;;;;;;4.67;2.10;;;9.70;83.10;;;;;;5030694;28;20400;-73
2023/01/08 10:24:36;;;;;;;2.20;1.57;;;9.70;83.00;;;;;;5031073;28;20226;-76
2023/01/08 10:27:14;;;;;;;2.00;1.40;;;9.70;83.00;;;;;;5025707;28;20440;-75
2023/01/08 10:29:40;;;;;;;1.70;1.40;;;9.70;82.80;;;;;;5030739;28;20424;-74
2023/01/08 10:32:15;;;;;;;1.77;1.50;;;9.70;82.70;;;;;;5030170;28;20536;-75
2023/01/08 10:34:51;;;;;;;1.53;1.40;;;9.80;82.20;;;;;;5031031;28;20412;-75
2023/01/08 10:37:37;;;;;;;2.00;1.40;;;9.90;81.90;;;;;;5027507;28;20542;-74
2023/01/08 10:40:25;;;;;;;2.67;1.60;;;9.90;81.70;;;;;;5029352;28;20928;-75
2023/01/08 10:42:51;;;;;;;2.10;1.43;;;9.90;81.70;;;;;;5028494;28;20481;-72
2023/01/08 10:45:27;;;;;;;3.20;1.77;;;9.90;81.40;;;;;;5027691;28;21102;-71
2023/01/08 10:47:59;;;;;;;3.23;1.70;;;9.90;81.40;;;;;;5030377;28;20462;-75
2023/01/08 10:50:31;;;;;;;2.93;1.37;;;9.90;81.50;;;;;;5032399;28;20427;-74
2023/01/08 10:53:24;;;;;;;2.63;1.47;;;10.00;81.50;;;;;;5033541;28;20420;-76
2023/01/08 10:55:57;;;;;;;3.77;1.90;;;10.10;81.20;;;;;;5028800;28;20478;-74
2023/01/08 10:58:23;;;;;;;3.97;1.80;;;10.10;80.90;;;;;;5033789;28;20435;-74
2023/01/08 11:00:49;;;;;;;2.23;1.57;;;10.10;81.20;;;;;;5032654;28;20741;-75
2023/01/08 11:03:31;;;;;;;1.80;1.73;;;10.10;81.10;;;;;;5027476;28;20667;-75
2023/01/08 11:05:57;;;;;;;3.13;1.93;;;10.10;81.20;;;;;;5034299;28;20456;-76
2023/01/08 11:08:26;;;;;;;3.17;1.90;;;10.20;80.80;;;;;;5033581;28;20503;-76
2023/01/08 11:10:53;;;;;;;1.83;1.40;;;10.20;80.60;;;;;;5033261;28;20431;-76
2023/01/08 11:13:19;;;;;;;3.10;1.60;;;10.30;80.80;;;;;;5034975;28;20953;-75
2023/01/08 11:15:46;;;;;;;3.13;2.07;;;10.30;80.60;;;;;;5034070;28;20432;-76
2023/01/08 11:18:24;;;;;;;3.17;1.80;;;10.40;80.60;;;;;;5033731;28;20656;-76
2023/01/08 11:20:51;;;;;;;4.43;1.80;;;10.50;80.00;;;;;;5033770;28;20424;-76
2023/01/08 11:23:22;;;;;;;3.07;1.50;;;10.50;79.30;;;;;;5032433;28;20431;-76
2023/01/08 11:25:56;;;;;;;2.90;1.73;;;10.50;79.50;;;;;;5033184;28;20535;-76
2023/01/08 11:28:36;;;;;;;3.77;1.90;;;10.60;79.20;;;;;;5023909;28;20966;-75
2023/01/08 11:31:12;;;;;;;2.13;1.30;;;10.60;79.00;;;;;;5031762;28;20863;-75
2023/01/08 11:33:39;;;;;;;2.53;1.10;;;10.70;79.20;;;;;;5028802;28;20422;-75
2023/01/08 11:36:22;;;;;;;2.70;1.53;;;10.70;79.00;;;;;;5028332;28;20448;-74
2023/01/08 11:38:47;;;;;;;2.00;1.30;;;10.70;78.90;;;;;;5026883;28;20854;-75
2023/01/08 11:41:25;;;;;;;1.60;1.30;;;10.70;78.70;;;;;;5033063;28;20420;-76
2023/01/08 11:44:18;;;;;;;2.67;1.37;;;10.70;78.60;;;;;;5026481;28;20181;-75
2023/01/08 11:46:59;;;;;;;1.93;1.40;;;10.70;78.60;;;;;;5027540;28;21257;-75
2023/01/08 11:50:10;;;;;;;2.43;0.93;;;10.70;78.40;;;;;;5027902;28;21020;-76
2023/01/08 11:52:44;;;;;;;1.83;1.30;;;10.70;78.60;;;;;;5000908;28;20456;-75
2023/01/08 11:55:31;;;;;;;2.50;1.53;;;10.80;78.40;;;;;;5001843;28;20421;-74
2023/01/08 11:58:02;;;;;;;1.80;1.30;;;10.70;78.40;;;;;;5001299;28;20988;-74
2023/01/08 12:00:37;;;;;;;3.20;1.20;;;10.80;78.70;;;;;;5001050;28;20421;-74
2023/01/08 12:03:16;;;;;;;3.10;1.47;;;10.80;78.70;;;;;;5002510;28;20792;-75
2023/01/08 12:05:50;;;;;;;2.63;1.77;;;10.80;78.70;;;;;;4997764;28;20471;-74
2023/01/08 12:08:47;;;;;;;3.23;1.57;;;10.70;79.00;;;;;;5005607;28;20502;-75
2023/01/08 12:11:31;;;;;;;1.97;1.17;;;10.70;78.60;;;;;;5005634;28;20444;-76
2023/01/08 12:14:11;;;;;;;3.13;1.53;;;10.60;78.60;;;;;;4999432;28;20409;-76
2023/01/08 12:17:12;;;;;;;1.67;1.40;;;10.60;78.70;;;;;;4994536;28;20456;-74
2023/01/08 12:19:49;;;;;;;2.10;1.30;;;10.60;78.90;;;;;;5004101;28;20871;-75
2023/01/08 12:22:36;;;;;;;1.50;1.17;;;10.60;79.00;;;;;;4999989;28;20877;-75
2023/01/08 12:25:25;;;;;;;2.13;1.30;;;10.60;79.20;;;;;;5003756;28;20425;-75
2023/01/08 12:28:25;;;;;;;3.50;1.50;;;10.60;78.70;;;;;;5007473;28;20520;-75
2023/01/08 12:31:09;;;;;;;2.00;1.13;;;10.60;78.70;;;;;;5030533;28;20486;-75
2023/01/08 12:33:43;;;;;;;1.67;1.50;;;10.60;78.70;;;;;;5024844;28;20412;-75
2023/01/08 12:36:13;;;;;;;1.40;1.13;;;10.70;78.40;;;;;;5029006;28;20448;-77
2023/01/08 12:38:43;;;;;;;2.00;1.40;;;10.70;78.30;;;;;;5026405;28;20424;-76
2023/01/08 12:41:18;;;;;;;2.10;1.20;;;10.60;78.30;;;;;;5026487;28;20417;-76
2023/01/08 12:43:49;;;;;;;1.40;1.20;;;10.70;78.10;;;;;;5030502;28;20508;-76
2023/01/08 12:46:16;;;;;;;1.40;1.10;;;10.60;78.00;;;;;;5025899;28;20467;-75
2023/01/08 12:48:44;;;;;;;1.93;1.17;;;10.70;78.10;;;;;;5024187;28;20464;-75
2023/01/08 12:51:18;;;;;;;1.47;1.33;;;10.70;78.10;;;;;;5024678;28;20419;-75
2023/01/08 12:54:21;;;;;;;1.73;1.00;;;10.70;78.10;;;;;;5026018;28;20449;-75
2023/01/08 12:57:01;;;;;;;2.80;1.40;;;10.70;78.10;;;;;;5026485;28;20467;-74
2023/01/08 12:59:27;;;;;;;1.67;1.20;;;10.80;78.10;;;;;;5026410;28;20477;-76
2023/01/08 13:02:17;;;;;;;1.47;1.13;;;10.80;77.80;;;;;;5027783;28;20815;-76
2023/01/08 13:04:46;;;;;;;2.23;1.30;;;10.80;78.00;;;;;;5027992;28;20184;-77
2023/01/08 13:07:22;;;;;;;2.13;1.20;;;10.90;77.80;;;;;;5030664;28;20459;-77